Beechville, Kentucky
Current Conditions -  °F | °C
As of 6:55 PM on Saturday 25 Oct 2014 (Local Time) from KGLW Reporting Station
Clear Clear  
Wind Chill: 62°   Ceiling: Unl
Heat Index: 62°   Visibility: 10mi
Dew Point: 58°   Wind: 0mph
Humidity: 87%   Direction: NA
Pressure: 30"   Gusts: NA
Location:  36.9886°N, 85.5829°W
Report Text: KGLW 252355Z AUTO 00000KT 10SM CLR 17/15 A3000 RMK AO2 T01690147 10240 20161
Loading
Personal Weather Stations






























Interactive Weather Map New forecast layout! Learn more

10-Day Weather Forecast

Advertisements
Track Severe Weather on mobile